Airport View

Enter AWOS ICAO identifier for current METAR.

ex. KFNL

KAEJ 022255Z AUTO 02005KT 10SM SCT100 23/M02 A3032 RMK AO2 T02321021

2 Jun 2020 23:08

Frequency: 132.925

Phone: 719-395-2599

Other Area AWOS: K7BM - KANK - KMYP - KLXV

TAF KASE 021735Z 0218/0318 36008KT P6SM SCT100 BKN200 FM022300 33011KT P6SM SCT250 FM030300 20007KT P6SM SCT120 SCT200 FM031000 VRB04KT P6SM SCT250